createdAt,value
2022-11-15T00:00:05.531Z,96.49
2022-11-15T00:02:33.223Z,96.53
2022-11-15T00:05:02.637Z,96.14
2022-11-15T00:07:54.157Z,95.66
2022-11-15T00:10:18.416Z,95.90
2022-11-15T00:12:45.967Z,95.67
2022-11-15T00:15:13.539Z,96.28
2022-11-15T00:17:41.063Z,95.40
2022-11-15T00:20:12.381Z,95.15
2022-11-15T00:22:40.100Z,94.80
2022-11-15T00:25:08.481Z,95.09
2022-11-15T00:27:36.035Z,95.14
2022-11-15T00:30:03.586Z,94.84
2022-11-15T00:32:33.063Z,94.35
2022-11-15T00:35:00.654Z,93.67
2022-11-15T00:37:29.617Z,94.09
2022-11-15T00:39:57.265Z,94.50
2022-11-15T00:42:24.993Z,94.64
2022-11-15T00:44:52.593Z,95.03
2022-11-15T00:47:20.354Z,94.58
2022-11-15T00:49:47.941Z,94.70
2022-11-15T00:52:15.534Z,94.88
2022-11-15T00:54:44.411Z,95.55
2022-11-15T00:57:12.311Z,95.15
2022-11-15T00:59:39.824Z,95.49
2022-11-15T01:02:07.384Z,95.36
2022-11-15T01:04:35.020Z,95.08
2022-11-15T01:07:02.577Z,95.75
2022-11-15T01:09:30.128Z,95.59
2022-11-15T01:11:59.021Z,95.77
2022-11-15T01:14:26.789Z,95.27
2022-11-15T01:16:54.347Z,95.42
2022-11-15T01:19:22.098Z,95.16
2022-11-15T01:21:50.875Z,94.76
2022-11-15T01:24:18.457Z,94.72
2022-11-15T01:26:46.031Z,95.01
2022-11-15T01:29:14.858Z,95.49
2022-11-15T01:31:42.368Z,95.57
2022-11-15T01:34:09.976Z,95.38
2022-11-15T01:36:37.602Z,94.45
2022-11-15T01:39:05.357Z,94.42
2022-11-15T01:41:34.607Z,95.63
2022-11-15T01:44:35.610Z,96.02
2022-11-15T01:47:07.845Z,96.11
2022-11-15T01:49:37.652Z,96.87
2022-11-15T01:52:07.638Z,96.16
2022-11-15T01:54:35.126Z,96.15
2022-11-15T01:57:04.984Z,96.58
2022-11-15T01:59:32.564Z,96.94
2022-11-15T02:02:00.119Z,97.13
2022-11-15T02:04:30.653Z,97.23
2022-11-15T02:06:58.302Z,97.55
2022-11-15T02:09:25.957Z,96.58
2022-11-15T02:11:53.905Z,96.69
2022-11-15T02:14:22.156Z,96.37
2022-11-15T02:16:56.452Z,95.75
2022-11-15T02:19:36.910Z,96.64
2022-11-15T02:22:13.207Z,96.62
2022-11-15T02:24:54.847Z,96.68
2022-11-15T02:27:36.608Z,96.86
2022-11-15T02:30:20.950Z,97.92
2022-11-15T02:32:51.977Z,97.67
2022-11-15T02:35:26.163Z,97.43
2022-11-15T02:37:57.221Z,97.37
2022-11-15T02:40:30.301Z,97.22
2022-11-15T02:43:17.312Z,97.56
2022-11-15T02:45:48.443Z,97.15
2022-11-15T02:48:16.251Z,97.21
2022-11-15T02:50:44.659Z,97.28
2022-11-15T02:53:12.231Z,97.10
2022-11-15T02:55:42.194Z,96.72
2022-11-15T02:58:45.876Z,96.42
2022-11-15T03:01:19.840Z,95.88
2022-11-15T03:03:57.313Z,95.56
2022-11-15T03:06:31.441Z,95.71
2022-11-15T03:09:05.889Z,95.67
2022-11-15T03:11:36.824Z,96.59
2022-11-15T03:14:10.525Z,96.35
2022-11-15T03:16:41.722Z,96.49
2022-11-15T03:19:15.567Z,96.32
2022-11-15T03:21:43.245Z,96.24
2022-11-15T03:24:11.052Z,96.66
2022-11-15T03:26:40.875Z,96.54
2022-11-15T03:29:11.142Z,96.43
2022-11-15T03:31:51.663Z,96.72
2022-11-15T03:34:24.597Z,96.44
2022-11-15T03:36:53.703Z,96.69
2022-11-15T03:39:22.228Z,96.53
2022-11-15T03:41:52.142Z,96.80
2022-11-15T03:44:24.487Z,96.53
2022-11-15T03:46:57.969Z,97.00
2022-11-15T03:49:29.852Z,97.11
2022-11-15T03:51:58.600Z,97.10
2022-11-15T03:54:26.220Z,97.09
2022-11-15T03:56:53.798Z,97.01
2022-11-15T03:59:21.419Z,96.95
2022-11-15T04:01:48.993Z,97.49
2022-11-15T04:04:17.908Z,97.62
2022-11-15T04:06:45.598Z,97.37
2022-11-15T04:09:13.263Z,97.12
2022-11-15T04:11:40.822Z,97.17
2022-11-15T04:14:08.355Z,96.98
2022-11-15T04:16:40.964Z,97.30
2022-11-15T04:19:28.758Z,97.51
2022-11-15T04:22:15.343Z,97.89
2022-11-15T04:24:42.844Z,98.05
2022-11-15T04:27:11.009Z,97.58
2022-11-15T04:29:38.508Z,97.80
2022-11-15T04:32:07.155Z,97.94
2022-11-15T04:34:35.231Z,97.48
2022-11-15T04:37:17.073Z,97.18
2022-11-15T04:39:45.221Z,96.89
2022-11-15T04:42:12.840Z,97.27
2022-11-15T04:44:40.521Z,97.21
2022-11-15T04:47:08.076Z,96.55
2022-11-15T04:49:35.654Z,97.08
2022-11-15T04:52:04.844Z,96.91
2022-11-15T04:54:32.616Z,96.68
2022-11-15T04:57:00.114Z,96.45
2022-11-15T04:59:27.690Z,96.81
2022-11-15T05:01:55.158Z,96.89
2022-11-15T05:04:21.754Z,97.20
2022-11-15T05:06:50.595Z,97.56
2022-11-15T05:09:19.825Z,95.88
2022-11-15T05:11:47.776Z,96.58
2022-11-15T05:14:15.480Z,96.76
2022-11-15T05:16:43.504Z,96.59
2022-11-15T05:19:10.989Z,97.15
2022-11-15T05:21:39.162Z,96.83
2022-11-15T05:24:07.603Z,97.17
2022-11-15T05:26:36.458Z,96.83
2022-11-15T05:29:04.295Z,96.53
2022-11-15T05:31:31.813Z,96.51
2022-11-15T05:34:07.004Z,96.69
2022-11-15T05:36:37.580Z,97.26
2022-11-15T05:39:06.013Z,96.68
2022-11-15T05:41:37.673Z,96.67
2022-11-15T05:44:08.325Z,95.95
2022-11-15T05:46:36.282Z,95.89
2022-11-15T05:49:03.905Z,96.11
2022-11-15T05:51:31.536Z,96.31
2022-11-15T05:54:00.286Z,96.71
2022-11-15T05:56:27.900Z,96.64
2022-11-15T05:58:59.726Z,96.52
2022-11-15T06:01:28.063Z,96.95
2022-11-15T06:03:55.624Z,96.63
2022-11-15T06:06:23.213Z,97.23
2022-11-15T06:08:50.726Z,97.61
2022-11-15T06:11:18.261Z,97.23
2022-11-15T06:13:45.797Z,97.43
2022-11-15T06:16:14.668Z,96.74
2022-11-15T06:18:42.155Z,97.44
2022-11-15T06:21:09.691Z,97.04
2022-11-15T06:23:37.424Z,97.52
2022-11-15T06:26:05.117Z,96.89
2022-11-15T06:28:33.334Z,96.95
2022-11-15T06:31:04.588Z,97.07
2022-11-15T06:33:33.816Z,96.91
2022-11-15T06:36:03.280Z,96.51
2022-11-15T06:38:30.798Z,96.19
2022-11-15T06:41:03.422Z,95.67
2022-11-15T06:43:31.261Z,95.60
2022-11-15T06:45:59.800Z,95.65
2022-11-15T06:48:27.331Z,95.83
2022-11-15T06:50:57.512Z,96.02
2022-11-15T06:53:25.453Z,95.25
2022-11-15T06:55:55.392Z,95.15
2022-11-15T06:58:23.601Z,95.63
2022-11-15T07:00:51.211Z,95.14
2022-11-15T07:03:19.068Z,95.53
2022-11-15T07:05:53.101Z,95.64
2022-11-15T07:08:21.966Z,95.80
2022-11-15T07:10:51.168Z,95.77
2022-11-15T07:13:18.732Z,95.65
2022-11-15T07:15:46.709Z,95.41
2022-11-15T07:18:14.432Z,95.51
2022-11-15T07:20:41.975Z,95.83
2022-11-15T07:23:09.556Z,95.70
2022-11-15T07:25:38.509Z,95.38
2022-11-15T07:28:06.411Z,95.43
2022-11-15T07:30:34.039Z,95.20
2022-11-15T07:33:02.686Z,95.32
2022-11-15T07:35:30.712Z,94.37
2022-11-15T07:37:59.154Z,93.88
2022-11-15T07:40:27.790Z,93.10
2022-11-15T07:43:01.046Z,94.48
2022-11-15T07:45:28.839Z,93.94
2022-11-15T07:47:58.760Z,94.10
2022-11-15T07:50:30.231Z,93.72
2022-11-15T07:52:58.199Z,93.73
2022-11-15T07:55:27.191Z,92.87
2022-11-15T07:58:02.426Z,92.91
2022-11-15T08:00:30.182Z,93.35
2022-11-15T08:03:03.756Z,93.15
2022-11-15T08:05:31.364Z,92.90
2022-11-15T08:07:59.036Z,92.76
2022-11-15T08:10:26.713Z,92.52
2022-11-15T08:13:06.382Z,92.05
2022-11-15T08:15:35.279Z,92.47
2022-11-15T08:18:05.297Z,91.92
2022-11-15T08:20:35.066Z,92.10
2022-11-15T08:23:04.736Z,91.58
2022-11-15T08:25:33.638Z,91.58
2022-11-15T08:28:03.644Z,90.91
2022-11-15T08:30:33.847Z,90.31
2022-11-15T08:33:03.536Z,90.75
2022-11-15T08:35:31.043Z,90.32
2022-11-15T08:38:00.850Z,90.52
2022-11-15T08:40:34.257Z,90.07
2022-11-15T08:43:05.464Z,89.49
2022-11-15T08:45:36.546Z,89.27
2022-11-15T08:48:04.547Z,89.26
2022-11-15T08:50:32.708Z,88.39
2022-11-15T08:53:06.448Z,88.33
2022-11-15T08:55:34.433Z,88.14
2022-11-15T08:58:02.456Z,87.70
2022-11-15T09:00:35.278Z,88.11
2022-11-15T09:03:12.603Z,88.06
2022-11-15T09:05:44.627Z,87.50
2022-11-15T09:08:40.878Z,87.34
2022-11-15T09:11:05.914Z,87.05
2022-11-15T09:13:35.823Z,87.17
2022-11-15T09:16:06.822Z,86.24
2022-11-15T09:18:40.028Z,86.39
2022-11-15T09:21:34.318Z,86.30
2022-11-15T09:24:03.717Z,86.58
2022-11-15T09:26:40.209Z,86.32
2022-11-15T09:29:11.605Z,86.39
2022-11-15T09:31:48.978Z,86.42
2022-11-15T09:34:37.788Z,86.66
2022-11-15T09:37:16.334Z,86.93
2022-11-15T09:39:46.200Z,87.13
2022-11-15T09:42:41.409Z,86.56
2022-11-15T09:45:36.215Z,86.39
2022-11-15T09:48:33.022Z,85.42
2022-11-15T09:51:06.061Z,85.36
2022-11-15T09:54:23.695Z,85.14
2022-11-15T09:56:36.736Z,84.77
2022-11-15T09:59:30.602Z,84.26
2022-11-15T10:02:06.479Z,84.65
2022-11-15T10:04:35.184Z,83.17
2022-11-15T10:07:10.368Z,83.05
2022-11-15T10:09:49.443Z,82.62
2022-11-15T10:12:20.317Z,81.94
2022-11-15T10:14:54.398Z,81.95
2022-11-15T10:17:52.482Z,82.49
2022-11-15T10:20:23.366Z,82.79
2022-11-15T10:22:55.074Z,82.37
2022-11-15T10:25:25.812Z,83.42
2022-11-15T10:27:58.942Z,81.39
2022-11-15T10:30:34.716Z,82.54
2022-11-15T10:33:17.573Z,82.27
2022-11-15T10:35:49.838Z,82.77
2022-11-15T10:38:19.232Z,83.66
2022-11-15T10:40:47.509Z,83.75
2022-11-15T10:43:18.489Z,82.45
2022-11-15T10:45:49.679Z,83.32
2022-11-15T10:48:27.705Z,83.40
2022-11-15T10:50:57.306Z,84.16
2022-11-15T10:53:34.941Z,84.19
2022-11-15T10:56:06.133Z,85.46
2022-11-15T10:58:42.277Z,85.75
2022-11-15T11:01:15.812Z,84.84
2022-11-15T11:03:49.581Z,85.99
2022-11-15T11:06:26.599Z,85.75
2022-11-15T11:09:31.328Z,84.56
2022-11-15T11:12:00.724Z,85.24
2022-11-15T11:15:10.406Z,85.72
2022-11-15T11:28:52.717Z,83.39
2022-11-15T11:31:54.286Z,83.55
2022-11-15T11:34:42.342Z,84.06
2022-11-15T11:37:16.864Z,85.29
2022-11-15T11:39:55.130Z,84.61
2022-11-15T11:42:42.204Z,84.80
2022-11-15T11:45:18.830Z,83.72
2022-11-15T11:47:49.941Z,83.35
2022-11-15T11:50:21.836Z,83.96
2022-11-15T11:53:04.017Z,84.17
2022-11-15T11:55:37.478Z,84.01
2022-11-15T11:58:35.610Z,83.49
2022-11-15T12:01:29.028Z,84.14
2022-11-15T12:04:34.704Z,83.62
2022-11-15T12:07:16.852Z,83.61
2022-11-15T12:10:02.936Z,83.93
2022-11-15T12:12:39.959Z,83.58
2022-11-15T12:15:17.564Z,83.28
2022-11-15T12:17:51.336Z,83.60
2022-11-15T12:20:21.438Z,84.04
2022-11-15T12:22:54.666Z,84.40
2022-11-15T12:25:25.564Z,83.92
2022-11-15T12:27:59.120Z,83.88
2022-11-15T12:30:57.485Z,83.00
2022-11-15T12:33:34.296Z,82.56
2022-11-15T12:36:05.018Z,82.76
2022-11-15T12:38:58.696Z,82.50
2022-11-15T12:41:30.144Z,82.23
2022-11-15T12:44:00.236Z,82.37
2022-11-15T12:47:05.626Z,82.62
2022-11-15T12:49:56.331Z,82.57
2022-11-15T12:53:10.040Z,82.54
2022-11-15T12:55:48.307Z,82.20
2022-11-15T12:58:52.491Z,82.28
2022-11-15T13:02:14.661Z,82.84
2022-11-15T13:04:49.049Z,82.36
2022-11-15T13:08:07.196Z,82.58
2022-11-15T13:10:36.305Z,83.59
2022-11-15T13:13:05.985Z,83.60
2022-11-15T13:15:45.879Z,83.93
2022-11-15T13:18:39.718Z,84.55
2022-11-15T13:21:38.923Z,84.32
2022-11-15T13:24:15.037Z,84.35
2022-11-15T13:26:48.992Z,84.19
2022-11-15T13:29:29.274Z,84.64
2022-11-15T13:32:09.353Z,84.38
2022-11-15T13:34:52.452Z,84.78
2022-11-15T13:37:38.443Z,85.01
2022-11-15T13:40:27.880Z,85.36
2022-11-15T13:42:58.816Z,85.31
2022-11-15T13:45:27.833Z,84.95
2022-11-15T13:48:07.315Z,85.17
2022-11-15T13:50:42.701Z,84.74
2022-11-15T13:53:13.754Z,85.09
2022-11-15T13:55:42.088Z,84.55
2022-11-15T13:58:24.265Z,83.96
2022-11-15T14:01:05.534Z,84.18
2022-11-15T14:07:24.155Z,84.13
2022-11-15T14:13:38.626Z,83.95
2022-11-15T14:17:02.054Z,84.10
2022-11-15T14:19:47.023Z,83.97
2022-11-15T14:22:30.234Z,84.32
2022-11-15T14:25:21.045Z,83.80
2022-11-15T14:28:20.745Z,83.81
2022-11-15T14:30:51.394Z,83.41
2022-11-15T14:33:24.848Z,82.63
2022-11-15T14:35:53.632Z,82.74
2022-11-15T14:38:21.885Z,82.42
2022-11-15T14:40:50.072Z,82.50
2022-11-15T14:43:17.865Z,82.65
2022-11-15T14:45:45.521Z,82.54
2022-11-15T14:48:14.515Z,82.26
2022-11-15T14:50:42.606Z,82.60
2022-11-15T14:53:14.184Z,82.91
2022-11-15T14:55:42.575Z,84.50
2022-11-15T14:58:10.815Z,84.79
2022-11-15T15:00:40.169Z,84.95
2022-11-15T15:03:11.412Z,84.80
2022-11-15T15:05:43.078Z,84.76
2022-11-15T15:08:11.778Z,84.42
2022-11-15T15:10:42.098Z,85.02
2022-11-15T15:13:18.304Z,85.00
2022-11-15T15:15:46.376Z,85.82
2022-11-15T15:18:14.276Z,86.00
2022-11-15T15:20:45.409Z,86.20
2022-11-15T15:23:18.510Z,86.50
2022-11-15T15:25:47.233Z,86.15
2022-11-15T15:28:15.148Z,86.62
2022-11-15T15:30:43.596Z,86.50
2022-11-15T15:33:11.410Z,86.20
2022-11-15T15:35:39.135Z,85.40
2022-11-15T15:38:08.531Z,85.18
2022-11-15T15:40:36.605Z,85.52
2022-11-15T15:43:04.656Z,85.72
2022-11-15T15:45:33.054Z,86.15
2022-11-15T15:48:00.891Z,86.04
2022-11-15T15:50:30.010Z,86.39
2022-11-15T15:52:59.365Z,86.69
2022-11-15T15:55:29.122Z,87.46
2022-11-15T15:57:57.134Z,87.90
2022-11-15T16:00:26.180Z,87.99
2022-11-15T16:02:54.525Z,88.25
2022-11-15T16:05:22.715Z,88.30
2022-11-15T16:07:50.856Z,88.43
2022-11-15T16:10:26.989Z,88.36
2022-11-15T16:12:57.785Z,88.17
2022-11-15T16:15:27.511Z,88.78
2022-11-15T16:17:56.735Z,89.11
2022-11-15T16:20:36.402Z,89.93
2022-11-15T16:23:08.958Z,90.46
2022-11-15T16:25:40.752Z,90.75
2022-11-15T16:28:17.206Z,90.96
2022-11-15T16:30:44.906Z,90.63
2022-11-15T16:33:12.496Z,90.61
2022-11-15T16:35:40.100Z,90.45
2022-11-15T16:38:09.314Z,90.58
2022-11-15T16:40:37.937Z,90.21
2022-11-15T16:43:06.618Z,90.57
2022-11-15T16:45:36.521Z,90.87
2022-11-15T16:48:05.160Z,90.91
2022-11-15T16:50:35.164Z,91.10
2022-11-15T16:53:02.948Z,90.98
2022-11-15T16:55:30.901Z,90.79
2022-11-15T16:57:59.335Z,90.93
2022-11-15T17:00:28.429Z,91.16
2022-11-15T17:02:57.842Z,90.94
2022-11-15T17:05:27.637Z,90.96
2022-11-15T17:07:55.218Z,90.89
2022-11-15T17:10:23.391Z,90.83
2022-11-15T17:12:51.353Z,90.67
2022-11-15T17:15:19.291Z,90.96
2022-11-15T17:17:52.256Z,90.96
2022-11-15T17:20:22.649Z,91.61
2022-11-15T17:22:50.136Z,92.55
2022-11-15T17:25:17.667Z,92.77
2022-11-15T17:27:45.250Z,92.45
2022-11-15T17:30:15.176Z,92.29
2022-11-15T17:32:42.801Z,92.75
2022-11-15T17:35:15.350Z,92.44
2022-11-15T17:37:45.286Z,92.14
2022-11-15T17:40:13.270Z,92.14
2022-11-15T17:42:42.556Z,92.13
2022-11-15T17:45:10.916Z,92.26
2022-11-15T17:47:38.846Z,91.87
2022-11-15T17:50:07.798Z,92.24
2022-11-15T17:52:35.362Z,92.49
2022-11-15T17:55:04.907Z,92.70
2022-11-15T17:57:32.435Z,93.40
2022-11-15T17:59:59.935Z,92.93
2022-11-15T18:02:28.050Z,93.24
2022-11-15T18:04:55.571Z,93.40
2022-11-15T18:07:23.325Z,92.29
2022-11-15T18:09:50.879Z,92.54
2022-11-15T18:12:19.729Z,92.03
2022-11-15T18:14:47.224Z,91.84
2022-11-15T18:17:14.718Z,91.62
2022-11-15T18:19:42.275Z,91.72
2022-11-15T18:22:10.191Z,91.81
2022-11-15T18:24:38.370Z,92.08
2022-11-15T18:27:07.197Z,92.34
2022-11-15T18:29:37.785Z,92.86
2022-11-15T18:32:11.248Z,92.72
2022-11-15T18:34:38.978Z,92.84
2022-11-15T18:37:06.496Z,92.97
2022-11-15T18:39:34.112Z,92.60
2022-11-15T18:42:02.164Z,92.45
2022-11-15T18:44:30.599Z,92.50
2022-11-15T18:46:59.974Z,91.76
2022-11-15T18:49:27.906Z,90.29
2022-11-15T18:51:58.308Z,89.48
2022-11-15T18:54:31.003Z,89.17
2022-11-15T18:57:01.682Z,89.88
2022-11-15T18:59:30.190Z,89.46
2022-11-15T19:01:57.876Z,89.67
2022-11-15T19:04:28.732Z,89.96
2022-11-15T19:06:56.582Z,90.42
2022-11-15T19:09:27.329Z,90.63
2022-11-15T19:11:54.952Z,90.68
2022-11-15T19:14:24.427Z,90.72
2022-11-15T19:16:57.262Z,90.87
2022-11-15T19:19:28.431Z,91.22
2022-11-15T19:21:57.509Z,91.36
2022-11-15T19:24:26.321Z,91.93
2022-11-15T19:26:54.904Z,91.62
2022-11-15T19:29:22.588Z,91.42
2022-11-15T19:31:51.430Z,91.37
2022-11-15T19:34:23.213Z,89.72
2022-11-15T19:36:52.365Z,89.00
2022-11-15T19:39:22.541Z,88.94
2022-11-15T19:41:53.828Z,88.89
2022-11-15T19:44:23.646Z,89.13
2022-11-15T19:46:51.507Z,89.60
2022-11-15T19:49:19.694Z,89.44
2022-11-15T19:51:49.737Z,88.73
2022-11-15T19:54:24.269Z,89.15
2022-11-15T19:57:07.759Z,88.84
2022-11-15T19:59:40.576Z,89.22
2022-11-15T20:02:19.758Z,89.28
2022-11-15T20:04:48.751Z,89.71
2022-11-15T20:07:16.615Z,89.32
2022-11-15T20:09:47.084Z,88.09
2022-11-15T20:12:14.933Z,88.68
2022-11-15T20:14:45.901Z,88.02
2022-11-15T20:17:13.888Z,88.48
2022-11-15T20:19:41.560Z,88.68
2022-11-15T20:22:14.427Z,88.38
2022-11-15T20:24:42.112Z,89.07
2022-11-15T20:27:11.354Z,87.07
2022-11-15T20:29:43.881Z,86.75
2022-11-15T20:32:12.888Z,87.04
2022-11-15T20:34:40.706Z,87.74
2022-11-15T20:37:08.459Z,88.29
2022-11-15T20:39:36.037Z,88.53
2022-11-15T20:42:05.358Z,89.32
2022-11-15T20:44:36.071Z,90.49
2022-11-15T20:47:04.416Z,90.66
2022-11-15T20:49:32.170Z,91.03
2022-11-15T20:51:59.897Z,90.64
2022-11-15T20:54:27.738Z,90.98
2022-11-15T20:56:56.418Z,91.04
2022-11-15T20:59:25.436Z,91.48
2022-11-15T21:01:54.657Z,91.63
2022-11-15T21:04:22.717Z,91.92
2022-11-15T21:06:50.753Z,91.74
2022-11-15T21:09:37.580Z,91.91
2022-11-15T21:12:19.661Z,91.50
2022-11-15T21:14:49.008Z,91.30
2022-11-15T21:17:22.183Z,90.63
2022-11-15T21:19:50.890Z,91.24
2022-11-15T21:22:29.859Z,90.99
2022-11-15T21:25:00.876Z,90.34
2022-11-15T21:27:32.375Z,90.18
2022-11-15T21:30:37.128Z,90.35
2022-11-15T21:33:08.060Z,89.06
2022-11-15T21:35:58.090Z,89.11
2022-11-15T21:38:25.944Z,88.83
2022-11-15T21:40:56.703Z,89.31
2022-11-15T21:43:28.328Z,88.86
2022-11-15T21:46:00.162Z,88.63
2022-11-15T21:48:40.371Z,88.15
2022-11-15T21:51:13.716Z,89.62
2022-11-15T21:53:54.759Z,90.60
2022-11-15T21:56:37.147Z,90.52
2022-11-15T21:59:04.868Z,91.07
2022-11-15T22:01:51.655Z,91.02
2022-11-15T22:04:34.459Z,90.84
2022-11-15T22:07:03.390Z,91.22
2022-11-15T22:09:34.135Z,91.51
2022-11-15T22:15:02.289Z,92.36
2022-11-15T22:18:11.800Z,92.27
2022-11-15T22:20:51.342Z,92.94
2022-11-15T22:23:19.052Z,93.46
2022-11-15T22:25:46.709Z,94.21
2022-11-15T22:31:07.166Z,95.04
2022-11-15T22:33:38.884Z,95.63
2022-11-15T22:39:35.819Z,95.82
2022-11-15T22:42:06.855Z,95.69
2022-11-15T22:44:36.923Z,95.90
2022-11-15T22:47:19.580Z,95.82
2022-11-15T22:50:04.333Z,95.88
2022-11-15T22:52:33.660Z,96.13
2022-11-15T22:56:08.389Z,96.38
2022-11-15T22:57:57.471Z,96.19
2022-11-15T23:01:10.158Z,96.23
2022-11-15T23:05:20.362Z,96.91
2022-11-15T23:12:06.741Z,97.38
2022-11-15T23:15:42.081Z,96.16
2022-11-15T23:18:07.565Z,96.30
2022-11-15T23:20:43.428Z,96.44
2022-11-15T23:27:20.813Z,96.25
2022-11-15T23:30:06.047Z,96.00
2022-11-15T23:32:51.428Z,95.84
2022-11-15T23:35:21.239Z,95.62
2022-11-15T23:37:49.145Z,95.42
2022-11-15T23:40:17.104Z,95.89
2022-11-15T23:42:46.069Z,97.12
2022-11-15T23:45:13.795Z,97.62
2022-11-15T23:47:41.418Z,96.92
2022-11-15T23:50:09.591Z,97.14
2022-11-15T23:52:37.159Z,97.76
2022-11-15T23:55:05.876Z,96.86
2022-11-15T23:57:33.540Z,96.71
